Time;durP1;ratioP1;P1;durP2;ratioP2;P2;SDS_P1;SDS_P2;PMS_P1;PMS_P2;Temp;Humidity;BMP_temperature;BMP_pressure;BME280_temperature;BME280_humidity;BME280_pressure;Samples;Min_cycle;Max_cycle;Signal;HPM_P1;HPM_P2
2023/06/07 00:02:59;;;;;;;11.10;3.62;;;;;;;17.40;50.30;100735.46;1703151;84;21648;-81
2023/06/07 00:06:13;;;;;;;5.22;3.17;;;;;;;17.42;50.48;100737.50;1703112;84;21351;-80
2023/06/07 00:09:20;;;;;;;11.12;3.47;;;;;;;17.43;50.31;100735.05;1701807;84;21323;-81
2023/06/07 00:12:26;;;;;;;9.80;3.50;;;;;;;17.44;49.45;100733.98;1703115;84;21316;-80
2023/06/07 00:15:32;;;;;;;9.05;3.72;;;;;;;17.55;48.57;100730.61;1703087;84;21862;-80
2023/06/07 00:18:40;;;;;;;7.35;3.50;;;;;;;17.55;48.72;100733.38;1702694;84;21355;-81
2023/06/07 00:21:48;;;;;;;5.85;3.62;;;;;;;17.63;49.40;100733.14;1703208;84;21367;-81
2023/06/07 00:24:54;;;;;;;6.35;4.00;;;;;;;17.55;49.75;100733.38;1706379;84;21371;-81
2023/06/07 00:28:00;;;;;;;5.12;3.33;;;;;;;17.37;50.08;100729.84;1710804;84;21374;-81
2023/06/07 00:31:05;;;;;;;5.22;3.45;;;;;;;17.50;49.98;100735.05;1710920;84;21307;-80
2023/06/07 00:34:11;;;;;;;6.97;3.58;;;;;;;17.47;50.19;100734.11;1710933;84;21323;-81
2023/06/07 00:37:18;;;;;;;6.12;3.25;;;;;;;17.33;49.70;100729.94;1735016;82;21285;-81
2023/06/07 00:40:23;;;;;;;8.03;3.47;;;;;;;17.28;49.25;100731.64;1738969;82;21325;-80
2023/06/07 00:43:30;;;;;;;9.70;3.65;;;;;;;17.42;49.02;100731.13;1740080;82;21907;-80
2023/06/07 00:46:37;;;;;;;10.38;3.77;;;;;;;17.43;48.97;100734.20;1740356;82;21313;-80
2023/06/07 00:49:42;;;;;;;7.45;3.27;;;;;;;17.37;48.96;100733.98;1739561;82;21313;-80
2023/06/07 00:52:48;;;;;;;8.00;3.67;;;;;;;17.41;48.96;100734.42;1669723;86;21337;-81
2023/06/07 00:55:54;;;;;;;6.20;3.80;;;;;;;17.34;49.31;100724.72;1701778;84;21340;-81
2023/06/07 00:58:59;;;;;;;6.80;3.65;;;;;;;17.34;49.19;100733.55;1701287;84;21360;-80
2023/06/07 01:02:06;;;;;;;10.20;3.58;;;;;;;17.25;49.11;100730.12;1700513;84;21344;-80
2023/06/07 01:05:12;;;;;;;5.92;3.25;;;;;;;17.29;49.40;100730.56;1702360;83;21621;-81
2023/06/07 01:08:17;;;;;;;10.28;3.50;;;;;;;17.21;49.63;100734.91;1729596;83;21333;-80
2023/06/07 01:11:22;;;;;;;7.35;3.75;;;;;;;17.05;49.98;100738.37;1731213;83;21313;-80
2023/06/07 01:14:29;;;;;;;13.65;3.17;;;;;;;17.15;49.67;100731.60;1730331;83;21381;-80
2023/06/07 01:17:40;;;;;;;5.67;3.50;;;;;;;17.20;49.77;100727.67;1730869;83;21309;-80
2023/06/07 01:20:43;;;;;;;8.83;3.42;;;;;;;17.29;49.69;100724.50;1729805;83;21365;-81
2023/06/07 01:23:50;;;;;;;7.75;3.20;;;;;;;17.44;49.20;100724.84;1729602;83;22673;-80
2023/06/07 01:27:01;;;;;;;13.03;3.67;;;;;;;17.40;48.35;100724.94;1737824;82;21364;-80
2023/06/07 01:30:08;;;;;;;8.65;3.77;;;;;;;17.37;48.76;100720.70;1737930;82;21345;-80
2023/06/07 01:33:13;;;;;;;7.00;3.90;;;;;;;17.46;48.62;100720.81;1737989;82;21340;-79
2023/06/07 01:36:18;;;;;;;5.78;3.72;;;;;;;17.54;47.99;100723.88;1738996;82;21907;-80
2023/06/07 01:39:23;;;;;;;6.78;2.85;;;;;;;17.64;48.22;100724.30;1739205;82;21931;-80
2023/06/07 01:42:29;;;;;;;8.90;2.90;;;;;;;17.70;47.43;100722.63;1739436;82;21349;-80
2023/06/07 01:45:29;;;;;;;7.30;3.17;;;;;;;17.70;47.27;100722.63;1738381;82;21329;-80
2023/06/07 01:48:36;;;;;;;6.78;3.55;;;;;;;17.82;46.40;100720.94;1739314;82;21312;-81
2023/06/07 01:51:36;;;;;;;16.30;3.58;;;;;;;17.98;46.51;100721.89;1739462;82;21313;-80
2023/06/07 01:54:41;;;;;;;9.80;3.65;;;;;;;17.90;47.28;100725.41;1739375;82;21309;-81
2023/06/07 01:57:52;;;;;;;9.33;3.40;;;;;;;17.85;47.78;100719.14;1739267;82;21316;-81
2023/06/07 02:01:20;;;;;;;5.05;3.40;;;;;;;17.81;48.24;100713.70;1738474;82;21321;-80
2023/06/07 02:04:27;;;;;;;8.80;3.27;;;;;;;17.89;48.19;100721.80;1737880;82;21345;-80
2023/06/07 02:07:35;;;;;;;8.65;3.33;;;;;;;17.93;48.35;100721.70;1740137;82;21627;-80
2023/06/07 02:10:40;;;;;;;5.12;3.08;;;;;;;17.99;48.13;100718.06;1738632;82;21328;-80
2023/06/07 02:13:50;;;;;;;11.38;3.67;;;;;;;18.24;47.96;100720.13;1739361;82;21306;-80
2023/06/07 02:16:55;;;;;;;5.30;3.60;;;;;;;18.54;47.61;100724.11;1739291;82;21309;-80
2023/06/07 02:20:02;;;;;;;5.97;3.33;;;;;;;18.76;47.65;100724.66;1738044;82;21348;-80
2023/06/07 02:23:09;;;;;;;6.00;2.98;;;;;;;19.00;47.23;100728.59;1739385;82;21329;-80
2023/06/07 02:26:13;;;;;;;7.95;3.37;;;;;;;19.27;46.69;100725.13;1735867;82;22550;-80
2023/06/07 02:29:19;;;;;;;5.20;3.17;;;;;;;19.59;46.06;100725.98;1730891;83;21306;-80
2023/06/07 02:32:25;;;;;;;5.87;3.00;;;;;;;19.96;45.60;100728.90;1729559;83;21597;-80
2023/06/07 02:35:31;;;;;;;8.30;2.85;;;;;;;20.27;45.19;100731.25;1729938;83;21341;-80
2023/06/07 02:38:36;;;;;;;8.30;3.35;;;;;;;20.67;44.59;100734.47;1730841;83;22600;-81
2023/06/07 02:41:43;;;;;;;8.68;2.52;;;;;;;20.96;43.92;100734.73;1729855;83;21353;-81
2023/06/07 02:44:49;;;;;;;6.83;2.85;;;;;;;21.39;43.28;100728.45;1730848;83;21325;-80
2023/06/07 02:47:55;;;;;;;7.92;2.83;;;;;;;21.82;42.74;100728.72;1729540;83;21322;-80
2023/06/07 02:51:01;;;;;;;12.28;2.90;;;;;;;22.27;42.27;100725.94;1729554;83;21337;-80
2023/06/07 02:54:08;;;;;;;6.30;3.00;;;;;;;22.70;41.67;100737.49;1730929;83;21321;-80
2023/06/07 02:57:15;;;;;;;8.68;3.42;;;;;;;23.01;41.11;100733.99;1730911;83;21936;-80
2023/06/07 03:00:23;;;;;;;6.20;2.98;;;;;;;23.28;40.02;100728.64;1730632;83;21333;-80
2023/06/07 03:03:31;;;;;;;7.62;3.62;;;;;;;23.62;39.45;100733.75;1730929;83;22123;-80
2023/06/07 03:06:40;;;;;;;9.53;3.55;;;;;;;23.76;39.15;100734.82;1730532;83;21360;-79
2023/06/07 03:09:50;;;;;;;8.90;3.37;;;;;;;23.94;38.69;100740.16;1731063;83;21350;-82
2023/06/07 03:12:56;;;;;;;6.03;2.87;;;;;;;23.97;38.92;100738.27;1731200;83;21311;-82
2023/06/07 03:16:03;;;;;;;7.83;2.77;;;;;;;23.86;39.45;100735.86;1730834;83;21341;-82
2023/06/07 03:19:12;;;;;;;7.10;3.08;;;;;;;23.84;39.97;100728.82;1730872;83;21301;-80
2023/06/07 03:22:21;;;;;;;5.28;3.08;;;;;;;23.83;40.27;100736.91;1729654;83;21400;-80
2023/06/07 03:25:27;;;;;;;10.30;3.30;;;;;;;23.99;39.00;100737.45;1730761;83;21302;-79
2023/06/07 03:28:34;;;;;;;7.78;3.17;;;;;;;24.10;38.04;100736.52;1724866;83;21709;-80
2023/06/07 03:31:34;;;;;;;8.15;3.65;;;;;;;24.25;37.77;100735.06;1764016;81;21326;-80
2023/06/07 03:34:41;;;;;;;8.90;3.33;;;;;;;24.55;38.40;100739.72;1762868;81;21318;-80
2023/06/07 03:37:48;;;;;;;4.35;2.65;;;;;;;24.90;37.83;100738.51;1762832;81;21345;-80
2023/06/07 03:40:56;;;;;;;9.55;3.20;;;;;;;25.12;38.71;100749.14;1764317;81;21330;-80
2023/06/07 03:44:03;;;;;;;11.10;3.20;;;;;;;25.03;39.89;100742.84;1764336;81;21329;-80
2023/06/07 03:47:09;;;;;;;10.08;3.30;;;;;;;25.18;39.60;100738.87;1764450;81;21322;-80
2023/06/07 03:50:15;;;;;;;16.20;3.92;;;;;;;25.36;39.30;100743.24;1764409;81;21932;-80
2023/06/07 03:53:21;;;;;;;14.60;4.78;;;;;;;25.56;38.02;100739.27;1764400;81;21290;-79
2023/06/07 03:56:27;;;;;;;11.88;4.85;;;;;;;25.80;36.92;100740.36;1764186;81;21330;-80
2023/06/07 03:59:34;;;;;;;12.82;3.77;;;;;;;25.88;36.22;100736.51;1764362;81;21302;-80
2023/06/07 04:02:41;;;;;;;16.77;3.80;;;;;;;26.12;37.95;100742.58;1763322;81;21334;-80
2023/06/07 04:05:46;;;;;;;9.30;3.85;;;;;;;26.37;37.74;100750.88;1764320;81;21829;-80
2023/06/07 04:08:59;;;;;;;11.57;3.67;;;;;;;26.31;38.42;100747.20;1761056;81;21846;-79
2023/06/07 04:12:02;;;;;;;9.73;3.52;;;;;;;26.18;38.17;100759.72;1741908;82;21901;-80
2023/06/07 04:15:08;;;;;;;11.57;3.87;;;;;;;26.25;38.06;100757.54;1742355;82;22624;-80
2023/06/07 04:18:13;;;;;;;18.10;4.40;;;;;;;26.04;38.19;100752.88;1742413;82;21309;-80
2023/06/07 04:21:20;;;;;;;17.05;3.62;;;;;;;26.10;37.50;100753.20;1742385;82;21316;-80
2023/06/07 04:24:28;;;;;;;8.25;3.35;;;;;;;26.11;36.65;100747.91;1740991;82;21298;-79
2023/06/07 04:27:34;;;;;;;9.90;3.30;;;;;;;26.14;36.44;100749.31;1737897;82;21330;-80
2023/06/07 04:30:42;;;;;;;6.47;3.08;;;;;;;26.26;35.63;100752.77;1738476;82;21300;-80
2023/06/07 04:33:47;;;;;;;8.33;2.65;;;;;;;26.35;34.73;100755.89;1738040;82;21322;-83
2023/06/07 04:36:56;;;;;;;7.33;2.83;;;;;;;26.50;34.06;100758.84;1738363;82;21934;-82
2023/06/07 04:40:04;;;;;;;21.45;3.15;;;;;;;26.76;34.17;100755.05;1738393;82;21299;-81
2023/06/07 04:43:12;;;;;;;8.25;2.80;;;;;;;27.00;33.13;100755.98;1737624;82;21894;-81
2023/06/07 04:46:18;;;;;;;9.40;2.50;;;;;;;27.21;32.70;100752.73;1738492;82;21278;-81
2023/06/07 04:49:25;;;;;;;7.10;2.55;;;;;;;27.40;32.16;100755.87;1738508;82;21326;-81
2023/06/07 04:52:32;;;;;;;10.58;3.42;;;;;;;27.74;31.75;100758.48;1738092;82;21307;-82
2023/06/07 04:55:43;;;;;;;7.70;2.70;;;;;;;27.95;31.84;100757.94;1738405;82;21299;-82
2023/06/07 04:58:52;;;;;;;6.97;2.25;;;;;;;28.33;31.98;100753.41;1737969;82;21635;-82
2023/06/07 05:01:59;;;;;;;9.43;2.60;;;;;;;28.50;31.41;100752.55;1737235;82;21358;-81
2023/06/07 05:05:06;;;;;;;5.28;2.42;;;;;;;28.55;30.64;100756.75;1738529;82;21295;-82
2023/06/07 05:08:12;;;;;;;5.62;2.45;;;;;;;28.58;30.07;100756.19;1738413;82;21307;-82
2023/06/07 05:11:18;;;;;;;5.42;2.50;;;;;;;28.72;30.01;100750.23;1738410;82;21774;-82
2023/06/07 05:14:24;;;;;;;7.70;2.37;;;;;;;28.78;30.15;100747.67;1736932;82;21322;-81
2023/06/07 05:17:29;;;;;;;11.65;2.80;;;;;;;29.05;30.02;100757.73;1736999;82;21302;-82
2023/06/07 05:20:35;;;;;;;5.95;2.40;;;;;;;29.24;29.59;100753.13;1737141;82;21283;-81
2023/06/07 05:23:41;;;;;;;7.62;2.35;;;;;;;29.35;29.90;100749.67;1734696;82;21291;-81
2023/06/07 05:26:49;;;;;;;9.58;2.20;;;;;;;29.35;30.30;100755.87;1737800;82;21826;-82
2023/06/07 05:29:55;;;;;;;12.20;2.50;;;;;;;29.48;29.98;100752.42;1737761;81;21347;-82
2023/06/07 05:33:03;;;;;;;5.17;2.30;;;;;;;29.69;29.10;100754.02;1716896;82;21868;-81
2023/06/07 05:36:07;;;;;;;5.03;2.20;;;;;;;29.74;28.51;100752.56;1731171;82;21350;-81
2023/06/07 05:39:14;;;;;;;6.28;2.33;;;;;;;29.82;28.08;100758.13;1739581;82;21881;-80
2023/06/07 05:42:06;;;;;;;4.17;2.08;;;;;;;29.90;27.78;100756.09;1739155;82;21291;-80
2023/06/07 05:45:12;;;;;;;5.90;1.85;;;;;;;30.06;28.00;100751.15;1724771;82;21316;-81
2023/06/07 05:48:20;;;;;;;9.08;2.10;;;;;;;30.11;27.45;100742.64;1735913;81;21905;-82
2023/06/07 05:51:27;;;;;;;8.43;2.00;;;;;;;30.15;27.04;100744.34;1716508;82;21311;-81
2023/06/07 05:54:32;;;;;;;4.90;1.60;;;;;;;30.03;27.06;100746.13;1724463;82;21322;-80
2023/06/07 05:57:39;;;;;;;7.53;1.70;;;;;;;30.17;26.06;100741.50;1723885;81;21290;-81
2023/06/07 06:00:47;;;;;;;8.08;1.90;;;;;;;30.13;25.96;100741.82;1731646;82;21304;-82
2023/06/07 06:03:53;;;;;;;5.05;2.10;;;;;;;30.23;25.93;100736.08;1727776;82;21301;-82
2023/06/07 06:07:18;;;;;;;29.82;3.33;;;;;;;30.43;26.07;100739.25;1742649;81;21878;-81
2023/06/07 06:10:24;;;;;;;5.87;1.90;;;;;;;30.46;26.16;100735.84;1734505;82;21845;-81
2023/06/07 06:13:32;;;;;;;6.22;2.00;;;;;;;30.43;25.35;100740.66;1743953;81;21270;-81
2023/06/07 06:16:38;;;;;;;5.25;2.10;;;;;;;30.33;25.68;100735.13;1728034;82;21287;-81
2023/06/07 06:19:44;;;;;;;5.17;1.82;;;;;;;30.45;25.78;100743.20;1733302;81;21357;-81
2023/06/07 06:22:52;;;;;;;4.92;2.02;;;;;;;30.62;25.36;100737.91;1728369;81;21339;-81
2023/06/07 06:25:58;;;;;;;11.18;2.98;;;;;;;30.74;25.67;100738.95;1741746;81;21287;-80
2023/06/07 06:28:58;;;;;;;7.42;1.90;;;;;;;30.96;25.40;100735.00;1740038;82;21303;-81
2023/06/07 06:31:59;;;;;;;8.05;2.05;;;;;;;31.10;24.95;100742.70;1735845;80;21879;-81
2023/06/07 06:35:05;;;;;;;4.40;2.15;;;;;;;31.26;24.35;100745.03;1733941;81;21945;-81
2023/06/07 06:38:11;;;;;;;5.15;2.00;;;;;;;31.09;24.65;100743.28;1735378;81;21342;-81
2023/06/07 06:41:18;;;;;;;9.50;2.08;;;;;;;30.84;24.57;100740.23;1732801;82;21176;-83
2023/06/07 06:44:25;;;;;;;5.40;2.10;;;;;;;30.59;24.52;100741.92;1729679;81;21279;-81
2023/06/07 06:47:25;;;;;;;3.00;1.77;;;;;;;30.38;23.97;100738.47;1721256;81;21315;-81
2023/06/07 06:50:18;;;;;;;3.52;2.10;;;;;;;30.20;24.50;100733.00;1730286;81;21306;-81
2023/06/07 06:53:06;;;;;;;4.03;2.05;;;;;;;30.07;24.48;100729.45;1737815;82;21362;-81
2023/06/07 06:55:58;;;;;;;3.75;2.10;;;;;;;30.11;24.28;100735.59;1732375;82;21358;-81
2023/06/07 06:58:46;;;;;;;12.75;2.33;;;;;;;30.10;24.72;100738.14;1735695;81;21893;-80
2023/06/07 07:01:56;;;;;;;11.38;2.35;;;;;;;29.94;24.71;100742.25;1717963;81;21357;-80
2023/06/07 07:05:05;;;;;;;5.47;2.50;;;;;;;29.94;24.94;100744.50;1725132;81;21303;-81
2023/06/07 07:08:10;;;;;;;3.67;2.17;;;;;;;29.96;24.84;100735.16;1725733;81;21295;-81
2023/06/07 07:11:15;;;;;;;5.92;2.00;;;;;;;30.14;24.49;100735.03;1723942;82;21291;-80
2023/06/07 07:14:22;;;;;;;6.05;2.02;;;;;;;30.23;24.56;100735.23;1735941;81;21321;-81
2023/06/07 07:17:28;;;;;;;5.62;2.20;;;;;;;30.31;24.14;100738.83;1730743;82;21326;-81
2023/06/07 07:20:33;;;;;;;7.90;1.85;;;;;;;30.39;23.37;100738.16;1725140;81;21317;-81
2023/06/07 07:23:41;;;;;;;6.40;2.20;;;;;;;30.40;23.13;100737.62;1735996;81;21342;-81
2023/06/07 07:26:46;;;;;;;9.45;2.00;;;;;;;30.78;23.74;100742.86;1716563;82;21659;-81
2023/06/07 07:29:53;;;;;;;3.08;1.85;;;;;;;30.80;23.66;100737.16;1728536;82;21303;-81
2023/06/07 07:33:01;;;;;;;6.50;1.95;;;;;;;30.85;22.75;100736.83;1732180;80;21369;-81
2023/06/07 07:36:09;;;;;;;5.53;2.30;;;;;;;30.72;23.18;100742.05;1732035;81;21797;-80
2023/06/07 07:39:15;;;;;;;7.30;2.30;;;;;;;30.60;23.99;100738.80;1735014;81;21319;-80
2023/06/07 07:42:22;;;;;;;3.70;1.92;;;;;;;30.76;23.44;100742.30;1730138;81;21878;-80
2023/06/07 07:45:32;;;;;;;4.20;2.22;;;;;;;30.88;24.34;100736.23;1737801;81;21287;-80
2023/06/07 07:48:38;;;;;;;4.62;2.42;;;;;;;30.83;23.39;100741.95;1740996;81;21303;-80
2023/06/07 07:51:44;;;;;;;4.20;2.08;;;;;;;30.71;23.22;100737.55;1734498;82;21322;-80
2023/06/07 07:54:51;;;;;;;5.30;2.52;;;;;;;30.68;23.36;100740.12;1732054;82;21306;-81
2023/06/07 07:57:50;;;;;;;3.67;2.10;;;;;;;30.99;24.25;100734.38;1731697;81;21274;-81
2023/06/07 08:00:56;;;;;;;7.75;2.58;;;;;;;31.21;24.07;100732.39;1736855;81;21282;-81
2023/06/07 08:04:02;;;;;;;10.82;2.80;;;;;;;31.42;23.54;100742.00;1733140;81;21276;-81
2023/06/07 08:07:08;;;;;;;5.95;3.10;;;;;;;31.63;23.47;100737.73;1721858;82;21310;-81
2023/06/07 08:10:14;;;;;;;6.03;2.75;;;;;;;31.78;23.54;100743.71;1727469;81;21302;-81
2023/06/07 08:13:22;;;;;;;4.78;2.98;;;;;;;31.60;22.77;100742.58;1734580;82;21593;-81
2023/06/07 08:16:29;;;;;;;5.03;2.62;;;;;;;31.18;22.93;100745.70;1728493;82;21322;-81
2023/06/07 08:19:36;;;;;;;6.15;2.47;;;;;;;30.96;23.11;100742.61;1731409;82;21313;-80
2023/06/07 08:22:43;;;;;;;9.28;2.77;;;;;;;30.98;23.29;100734.11;1731456;82;21287;-81
2023/06/07 08:25:50;;;;;;;11.00;3.65;;;;;;;30.96;23.32;100735.00;1734546;81;21275;-81
2023/06/07 08:28:56;;;;;;;8.80;3.05;;;;;;;31.11;23.69;100733.11;1733820;81;21314;-81
2023/06/07 08:32:02;;;;;;;5.72;3.17;;;;;;;31.28;24.33;100727.22;1716927;82;21299;-82
2023/06/07 08:35:08;;;;;;;10.82;2.98;;;;;;;31.27;23.67;100725.55;1725801;81;21335;-81
2023/06/07 08:38:14;;;;;;;8.33;2.95;;;;;;;31.11;24.01;100725.48;1735427;81;21362;-80
2023/06/07 08:41:18;;;;;;;9.50;3.17;;;;;;;31.00;23.71;100729.56;1733056;81;21283;-81
2023/06/07 08:44:24;;;;;;;6.47;2.80;;;;;;;30.87;23.12;100728.91;1726345;81;21313;-81
2023/06/07 08:47:30;;;;;;;8.95;3.10;;;;;;;30.83;23.30;100729.25;1742215;81;21362;-80
2023/06/07 08:50:36;;;;;;;15.43;3.67;;;;;;;30.84;22.75;100732.33;1734847;82;21347;-80
2023/06/07 08:53:54;;;;;;;7.80;3.33;;;;;;;30.71;23.17;100724.01;1721028;81;21320;-81
2023/06/07 08:57:00;;;;;;;13.65;3.27;;;;;;;30.91;23.28;100722.36;1736360;81;22144;-81
2023/06/07 09:00:08;;;;;;;11.15;2.92;;;;;;;30.99;24.20;100725.91;1733981;81;21345;-81
2023/06/07 09:03:19;;;;;;;7.17;3.40;;;;;;;30.99;23.54;100735.79;1741157;81;21310;-78
2023/06/07 09:06:34;;;;;;;11.20;2.90;;;;;;;31.02;23.54;100732.37;1735536;81;21767;-81
2023/06/07 09:09:46;;;;;;;;;;;;;;;31.15;23.22;100729.92;1739335;81;21321;-80
2023/06/07 09:12:53;;;;;;;4.83;2.58;;;;;;;31.07;22.93;100726.39;1721039;82;20307;-80
2023/06/07 09:16:06;;;;;;;7.60;2.65;;;;;;;31.17;23.69;100731.31;1724575;82;21340;-81
2023/06/07 09:19:14;;;;;;;7.75;2.85;;;;;;;31.38;23.59;100724.81;1748555;81;21299;-81
2023/06/07 09:22:25;;;;;;;6.83;3.02;;;;;;;31.47;22.54;100725.80;1731294;82;21318;-82
2023/06/07 09:25:31;;;;;;;5.60;2.58;;;;;;;31.30;20.86;100729.77;1735487;81;21333;-81
2023/06/07 09:28:37;;;;;;;3.55;2.00;;;;;;;31.18;21.43;100732.98;1736988;81;21906;-81
2023/06/07 09:31:50;;;;;;;3.60;1.95;;;;;;;30.96;21.37;100733.59;1744073;81;21301;-81
2023/06/07 10:02:38;;;;;;;6.10;1.90;;;;;;;29.80;22.64;100706.84;1841033;77;28033;-80
2023/06/07 10:05:45;;;;;;;8.15;2.10;;;;;;;29.87;22.57;100707.90;1789274;78;21364;-80
2023/06/07 10:08:51;;;;;;;5.87;2.10;;;;;;;30.11;22.67;100711.61;1770228;79;21342;-80
2023/06/07 10:12:00;;;;;;;3.52;2.20;;;;;;;29.93;22.60;100706.73;1800760;78;21265;-81
2023/06/07 10:15:10;;;;;;;4.37;2.10;;;;;;;29.59;22.78;100708.97;1791287;80;21521;-80
2023/06/07 10:18:27;;;;;;;4.25;2.30;;;;;;;29.75;23.37;100703.50;1784973;80;21306;-80
2023/06/07 10:21:34;;;;;;;7.78;2.45;;;;;;;30.08;23.74;100703.77;1825200;77;21563;-80
2023/06/07 10:24:47;;;;;;;5.92;2.00;;;;;;;29.97;23.91;100698.80;1784416;80;21313;-80
2023/06/07 10:28:27;;;;;;;11.53;2.50;;;;;;;30.33;24.10;100689.15;1758125;79;21335;-80
2023/06/07 10:31:35;;;;;;;6.10;2.30;;;;;;;30.59;23.02;100686.88;1782128;78;21279;-80
2023/06/07 10:34:41;;;;;;;3.58;2.33;;;;;;;30.51;22.86;100684.98;1779027;78;21859;-80
2023/06/07 10:37:50;;;;;;;9.95;3.27;;;;;;;29.99;24.29;100687.21;1797485;79;21301;-80
2023/06/07 10:40:56;;;;;;;4.17;2.17;;;;;;;30.00;23.96;100677.61;1793500;78;21299;-81
2023/06/07 10:44:02;;;;;;;5.22;2.60;;;;;;;29.72;23.88;100674.48;1795244;79;21856;-80
2023/06/07 10:47:32;;;;;;;7.45;2.83;;;;;;;29.67;24.06;100673.11;1848400;77;21333;-80
2023/06/07 10:50:42;;;;;;;8.65;2.77;;;;;;;29.60;24.82;100681.08;1769779;78;21350;-81
2023/06/07 10:53:56;;;;;;;5.67;2.42;;;;;;;29.73;24.03;100678.13;1816409;78;21272;-81
2023/06/07 10:56:55;;;;;;;5.00;2.95;;;;;;;29.43;25.17;100688.49;1814821;78;21835;-80
2023/06/07 11:00:01;;;;;;;9.13;2.50;;;;;;;29.57;25.37;100685.05;1755249;79;21283;-80
2023/06/07 11:03:18;;;;;;;12.40;2.72;;;;;;;29.65;24.60;100681.03;1796396;79;21338;-80
2023/06/07 11:06:25;;;;;;;6.67;2.62;;;;;;;29.65;24.24;100685.27;1838602;76;21199;-80
2023/06/07 11:09:33;;;;;;;5.58;2.58;;;;;;;29.88;23.90;100674.33;1807401;77;21343;-80
2023/06/07 11:12:56;;;;;;;7.03;2.83;;;;;;;29.99;23.50;100665.48;1773190;79;21328;-80
2023/06/07 11:16:07;;;;;;;8.15;2.70;;;;;;;29.86;24.31;100675.20;1783948;79;21889;-80
2023/06/07 11:19:17;;;;;;;6.22;2.30;;;;;;;29.90;23.94;100670.09;1782603;80;21314;-81
2023/06/07 11:22:26;;;;;;;7.37;3.15;;;;;;;30.15;24.16;100665.35;1768912;80;21354;-80
2023/06/07 11:25:32;;;;;;;5.75;2.67;;;;;;;30.31;23.08;100674.52;1735344;80;21301;-81
2023/06/07 11:28:40;;;;;;;2.85;2.12;;;;;;;30.11;23.21;100672.13;1796086;79;21898;-80
2023/06/07 11:31:46;;;;;;;4.85;2.35;;;;;;;30.11;23.12;100667.05;1802627;79;21286;-80
2023/06/07 11:34:57;;;;;;;4.33;2.20;;;;;;;30.33;22.18;100651.06;1802371;79;21293;-81
2023/06/07 11:38:03;;;;;;;7.87;2.58;;;;;;;30.43;22.31;100653.75;1814402;78;21333;-80
2023/06/07 11:41:10;;;;;;;7.37;2.67;;;;;;;30.04;22.86;100661.20;1818647;78;21277;-80
2023/06/07 11:44:17;;;;;;;5.80;2.58;;;;;;;30.18;23.51;100651.50;1829190;78;21274;-81
2023/06/07 11:47:23;;;;;;;11.25;2.50;;;;;;;30.30;22.63;100651.07;1832703;78;21294;-80
2023/06/07 11:50:28;;;;;;;4.25;2.40;;;;;;;30.11;22.16;100655.20;1811767;78;21318;-81
2023/06/07 11:53:34;;;;;;;8.50;2.83;;;;;;;29.99;22.93;100649.98;1759913;80;21927;-81
2023/06/07 11:56:41;;;;;;;4.92;2.40;;;;;;;29.99;23.54;100651.96;1817548;78;21286;-81
2023/06/07 11:59:50;;;;;;;6.72;2.35;;;;;;;30.01;23.91;100650.51;1815266;78;21320;-80
2023/06/07 12:02:59;;;;;;;4.58;2.70;;;;;;;29.99;23.50;100651.96;1797554;78;21293;-80
2023/06/07 12:06:05;;;;;;;4.78;2.62;;;;;;;30.21;23.27;100649.50;1818716;78;21286;-80
2023/06/07 12:09:12;;;;;;;9.40;2.77;;;;;;;30.33;23.03;100639.77;1782597;78;21748;-80
2023/06/07 12:12:21;;;;;;;8.38;2.98;;;;;;;30.52;23.44;100635.85;1789984;78;21326;-80
2023/06/07 12:15:26;;;;;;;7.95;2.65;;;;;;;30.53;22.48;100645.98;1819927;77;21863;-80
2023/06/07 12:18:38;;;;;;;3.35;2.60;;;;;;;30.70;22.89;100642.68;1805444;78;21867;-80
2023/06/07 12:21:44;;;;;;;5.97;2.20;;;;;;;30.55;22.01;100642.31;1789746;78;21286;-80
2023/06/07 12:24:49;;;;;;;5.12;2.58;;;;;;;30.46;22.46;100634.24;1808711;78;21281;-80
2023/06/07 12:27:56;;;;;;;3.67;2.25;;;;;;;30.45;22.62;100631.73;1783066;78;21287;-80
2023/06/07 12:31:01;;;;;;;5.75;2.70;;;;;;;30.37;22.68;100622.52;1789063;80;21317;-81
2023/06/07 12:34:10;;;;;;;6.72;2.77;;;;;;;30.24;22.53;100626.31;1761622;81;21310;-81
2023/06/07 12:37:08;;;;;;;8.78;2.80;;;;;;;30.12;22.69;100620.81;1784230;80;21859;-80
2023/06/07 12:40:15;;;;;;;5.97;2.98;;;;;;;30.32;22.91;100622.00;1766262;80;21299;-80
2023/06/07 12:43:23;;;;;;;5.47;2.87;;;;;;;30.15;22.96;100611.19;1785222;80;21285;-80
2023/06/07 12:46:33;;;;;;;5.30;2.60;;;;;;;30.00;22.74;100615.56;1766485;80;21187;-80
2023/06/07 12:49:44;;;;;;;7.97;2.98;;;;;;;30.08;22.44;100608.45;1816812;78;21358;-80
2023/06/07 12:52:50;;;;;;;4.78;2.60;;;;;;;30.06;22.52;100605.90;1785680;79;21297;-80
2023/06/07 12:55:57;;;;;;;4.95;2.80;;;;;;;30.00;22.14;100603.71;1809039;78;21295;-81
2023/06/07 12:59:03;;;;;;;5.03;2.40;;;;;;;29.94;21.34;100604.08;1813850;78;21328;-80
2023/06/07 13:02:10;;;;;;;4.90;2.60;;;;;;;29.99;21.08;100596.40;1816555;78;21296;-81
2023/06/07 13:05:20;;;;;;;4.30;2.67;;;;;;;29.99;21.13;100588.52;1787677;78;21370;-81
2023/06/07 13:08:26;;;;;;;4.58;2.45;;;;;;;30.07;21.63;100591.26;1786972;78;22468;-80
2023/06/07 13:11:32;;;;;;;12.28;3.08;;;;;;;30.15;23.13;100588.63;1797067;79;21883;-80
2023/06/07 13:14:38;;;;;;;7.42;2.60;;;;;;;30.24;24.08;100586.82;1769554;80;21326;-80
2023/06/07 13:17:44;;;;;;;7.97;2.70;;;;;;;30.32;23.67;100588.72;1766271;81;21329;-80
2023/06/07 13:20:50;;;;;;;6.28;2.75;;;;;;;30.23;23.34;100585.14;1766545;80;21322;-80
2023/06/07 13:23:56;;;;;;;7.60;2.75;;;;;;;30.28;23.21;100587.91;1767385;81;21345;-80
2023/06/07 13:26:57;;;;;;;6.53;2.52;;;;;;;30.27;23.47;100586.23;1767506;81;21317;-80
2023/06/07 13:30:02;;;;;;;9.48;3.02;;;;;;;30.13;22.82;100589.51;1766019;81;21645;-80
2023/06/07 13:33:08;;;;;;;7.97;2.58;;;;;;;30.02;22.65;100587.92;1767190;81;21325;-80
2023/06/07 13:36:14;;;;;;;6.83;2.80;;;;;;;30.07;22.64;100591.26;1783324;79;21891;-80
2023/06/07 13:39:18;;;;;;;7.72;2.85;;;;;;;30.06;22.86;100590.39;1799755;79;21891;-80
2023/06/07 13:42:26;;;;;;;4.62;2.60;;;;;;;29.91;23.65;100587.75;1799492;79;21871;-80
2023/06/07 13:45:30;;;;;;;6.87;2.15;;;;;;;29.90;22.98;100598.19;1799780;79;21305;-80
2023/06/07 13:48:39;;;;;;;4.35;2.33;;;;;;;29.65;22.65;100588.59;1801309;79;21278;-80
2023/06/07 13:51:46;;;;;;;5.83;2.33;;;;;;;29.74;22.74;100596.69;1800496;79;21309;-80
2023/06/07 13:54:52;;;;;;;8.75;3.00;;;;;;;29.76;23.02;100592.98;1778777;79;21314;-80
2023/06/07 13:58:00;;;;;;;6.35;2.87;;;;;;;29.84;21.99;100590.09;1801870;79;21285;-80
2023/06/07 14:01:06;;;;;;;4.90;2.55;;;;;;;29.96;21.79;100589.94;1801543;79;21294;-80
2023/06/07 14:04:13;;;;;;;4.55;2.72;;;;;;;29.96;22.65;100591.34;1800513;79;21866;-80
2023/06/07 14:07:19;;;;;;;6.90;2.87;;;;;;;29.71;23.64;100581.19;1788927;79;21326;-80
2023/06/07 14:10:25;;;;;;;5.85;2.72;;;;;;;29.75;23.28;100582.85;1785822;80;21892;-80
2023/06/07 14:13:30;;;;;;;5.50;2.70;;;;;;;29.90;23.70;100588.89;1785307;80;21306;-80
2023/06/07 14:16:37;;;;;;;4.42;2.30;;;;;;;29.76;23.46;100592.98;1785484;80;21293;-80
2023/06/07 14:19:42;;;;;;;4.28;2.90;;;;;;;29.79;23.35;100586.19;1786746;80;21290;-79
2023/06/07 14:22:48;;;;;;;4.75;2.35;;;;;;;29.79;23.66;100580.55;1785355;80;21904;-80
2023/06/07 14:25:54;;;;;;;7.28;3.30;;;;;;;29.78;24.35;100578.01;1785451;80;22218;-80
2023/06/07 14:29:01;;;;;;;6.35;3.02;;;;;;;29.74;23.60;100579.77;1785278;80;21291;-80
2023/06/07 14:32:06;;;;;;;23.32;3.95;;;;;;;29.74;23.11;100579.77;1785938;80;21331;-80
2023/06/07 14:35:13;;;;;;;11.43;3.40;;;;;;;29.79;23.68;100577.73;1785432;80;21845;-80
2023/06/07 14:38:19;;;;;;;6.80;2.77;;;;;;;29.66;22.86;100581.24;1785502;80;21286;-80
2023/06/07 14:41:26;;;;;;;5.85;2.70;;;;;;;29.64;22.67;100579.84;1785433;80;21353;-80
2023/06/07 14:44:32;;;;;;;8.20;2.85;;;;;;;29.44;22.79;100580.86;1781115;80;21295;-80
2023/06/07 14:47:37;;;;;;;8.58;2.83;;;;;;;29.33;22.99;100570.83;1769750;80;21305;-81
2023/06/07 14:50:42;;;;;;;5.05;2.67;;;;;;;29.46;23.59;100565.92;1784466;80;21892;-80
2023/06/07 14:53:48;;;;;;;5.33;2.72;;;;;;;29.47;24.28;100568.43;1786337;80;21281;-81
2023/06/07 14:56:54;;;;;;;16.52;3.45;;;;;;;29.46;23.92;100565.92;1777840;80;21307;-80